sensor_id;sensor_type;location;lat;lon;timestamp;P1;durP1;ratioP1;P2;durP2;ratioP2
48014;SDS011;33780;51.034;7.120;2024-02-16T00:00:57;2.75;;;1.00;;
48014;SDS011;33780;51.034;7.120;2024-02-16T00:03:23;3.15;;;1.02;;
48014;SDS011;33780;51.034;7.120;2024-02-16T00:05:48;2.42;;;1.10;;
48014;SDS011;33780;51.034;7.120;2024-02-16T00:08:16;3.00;;;1.30;;
48014;SDS011;33780;51.034;7.120;2024-02-16T00:10:42;4.43;;;1.25;;
48014;SDS011;33780;51.034;7.120;2024-02-16T00:13:08;5.63;;;1.08;;
48014;SDS011;33780;51.034;7.120;2024-02-16T00:15:33;3.70;;;1.20;;
48014;SDS011;33780;51.034;7.120;2024-02-16T00:17:58;3.28;;;1.10;;
48014;SDS011;33780;51.034;7.120;2024-02-16T00:20:24;2.28;;;1.00;;
48014;SDS011;33780;51.034;7.120;2024-02-16T00:22:49;2.97;;;1.15;;
48014;SDS011;33780;51.034;7.120;2024-02-16T00:25:14;4.15;;;1.30;;
48014;SDS011;33780;51.034;7.120;2024-02-16T00:27:40;2.97;;;1.05;;
48014;SDS011;33780;51.034;7.120;2024-02-16T00:30:06;3.58;;;1.10;;
48014;SDS011;33780;51.034;7.120;2024-02-16T00:32:32;4.00;;;1.17;;
48014;SDS011;33780;51.034;7.120;2024-02-16T00:34:57;4.00;;;1.33;;
48014;SDS011;33780;51.034;7.120;2024-02-16T00:37:23;2.60;;;1.00;;
48014;SDS011;33780;51.034;7.120;2024-02-16T00:39:49;2.67;;;1.20;;
48014;SDS011;33780;51.034;7.120;2024-02-16T00:42:15;2.75;;;0.93;;
48014;SDS011;33780;51.034;7.120;2024-02-16T00:44:40;3.20;;;1.00;;
48014;SDS011;33780;51.034;7.120;2024-02-16T00:47:05;4.50;;;1.20;;
48014;SDS011;33780;51.034;7.120;2024-02-16T00:49:31;2.78;;;1.10;;
48014;SDS011;33780;51.034;7.120;2024-02-16T00:51:57;3.03;;;1.20;;
48014;SDS011;33780;51.034;7.120;2024-02-16T00:54:22;2.83;;;1.00;;
48014;SDS011;33780;51.034;7.120;2024-02-16T00:56:48;3.38;;;1.10;;
48014;SDS011;33780;51.034;7.120;2024-02-16T00:59:13;3.17;;;1.10;;
48014;SDS011;33780;51.034;7.120;2024-02-16T01:01:39;3.63;;;1.00;;
48014;SDS011;33780;51.034;7.120;2024-02-16T01:04:04;4.00;;;1.15;;
48014;SDS011;33780;51.034;7.120;2024-02-16T01:06:31;4.22;;;1.42;;
48014;SDS011;33780;51.034;7.120;2024-02-16T01:08:57;5.05;;;1.13;;
48014;SDS011;33780;51.034;7.120;2024-02-16T01:11:22;4.82;;;1.27;;
48014;SDS011;33780;51.034;7.120;2024-02-16T01:13:48;3.95;;;1.25;;
48014;SDS011;33780;51.034;7.120;2024-02-16T01:16:13;4.25;;;1.40;;
48014;SDS011;33780;51.034;7.120;2024-02-16T01:18:39;3.30;;;1.00;;
48014;SDS011;33780;51.034;7.120;2024-02-16T01:21:04;3.20;;;1.13;;
48014;SDS011;33780;51.034;7.120;2024-02-16T01:23:30;2.90;;;1.20;;
48014;SDS011;33780;51.034;7.120;2024-02-16T01:25:55;3.25;;;1.10;;
48014;SDS011;33780;51.034;7.120;2024-02-16T01:28:20;2.35;;;0.93;;
48014;SDS011;33780;51.034;7.120;2024-02-16T01:30:46;3.47;;;1.15;;
48014;SDS011;33780;51.034;7.120;2024-02-16T01:33:12;2.65;;;1.02;;
48014;SDS011;33780;51.034;7.120;2024-02-16T01:35:38;2.40;;;1.15;;
48014;SDS011;33780;51.034;7.120;2024-02-16T01:38:04;3.22;;;1.10;;
48014;SDS011;33780;51.034;7.120;2024-02-16T01:40:30;3.05;;;1.25;;
48014;SDS011;33780;51.034;7.120;2024-02-16T01:42:55;3.38;;;1.10;;
48014;SDS011;33780;51.034;7.120;2024-02-16T01:45:21;2.50;;;1.08;;
48014;SDS011;33780;51.034;7.120;2024-02-16T01:47:50;2.67;;;1.30;;
48014;SDS011;33780;51.034;7.120;2024-02-16T01:50:16;3.97;;;1.02;;
48014;SDS011;33780;51.034;7.120;2024-02-16T01:52:47;3.90;;;1.10;;
48014;SDS011;33780;51.034;7.120;2024-02-16T01:55:13;2.55;;;1.30;;
48014;SDS011;33780;51.034;7.120;2024-02-16T01:57:40;3.38;;;1.75;;
48014;SDS011;33780;51.034;7.120;2024-02-16T02:00:08;4.07;;;1.25;;
48014;SDS011;33780;51.034;7.120;2024-02-16T02:02:34;6.63;;;1.45;;
48014;SDS011;33780;51.034;7.120;2024-02-16T02:05:00;4.20;;;1.20;;
48014;SDS011;33780;51.034;7.120;2024-02-16T02:07:26;4.28;;;1.10;;
48014;SDS011;33780;51.034;7.120;2024-02-16T02:09:52;2.80;;;1.10;;
48014;SDS011;33780;51.034;7.120;2024-02-16T02:12:17;2.95;;;1.20;;
48014;SDS011;33780;51.034;7.120;2024-02-16T02:14:43;3.47;;;1.40;;
48014;SDS011;33780;51.034;7.120;2024-02-16T02:17:09;3.00;;;1.15;;
48014;SDS011;33780;51.034;7.120;2024-02-16T02:19:34;2.60;;;1.10;;
48014;SDS011;33780;51.034;7.120;2024-02-16T02:22:00;4.03;;;1.10;;
48014;SDS011;33780;51.034;7.120;2024-02-16T02:24:26;5.45;;;1.10;;
48014;SDS011;33780;51.034;7.120;2024-02-16T02:26:51;2.75;;;1.10;;
48014;SDS011;33780;51.034;7.120;2024-02-16T02:29:16;6.38;;;0.98;;
48014;SDS011;33780;51.034;7.120;2024-02-16T02:31:42;3.55;;;1.00;;
48014;SDS011;33780;51.034;7.120;2024-02-16T02:34:07;3.80;;;0.98;;
48014;SDS011;33780;51.034;7.120;2024-02-16T02:36:33;2.30;;;1.00;;
48014;SDS011;33780;51.034;7.120;2024-02-16T02:38:58;2.55;;;1.00;;
48014;SDS011;33780;51.034;7.120;2024-02-16T02:41:24;3.22;;;1.00;;
48014;SDS011;33780;51.034;7.120;2024-02-16T02:43:49;3.08;;;0.98;;
48014;SDS011;33780;51.034;7.120;2024-02-16T02:46:15;2.88;;;1.30;;
48014;SDS011;33780;51.034;7.120;2024-02-16T02:48:42;1.88;;;0.80;;
48014;SDS011;33780;51.034;7.120;2024-02-16T02:51:08;3.70;;;1.20;;
48014;SDS011;33780;51.034;7.120;2024-02-16T02:53:34;3.63;;;1.10;;
48014;SDS011;33780;51.034;7.120;2024-02-16T02:56:00;3.08;;;1.10;;
48014;SDS011;33780;51.034;7.120;2024-02-16T02:58:26;3.00;;;1.15;;
48014;SDS011;33780;51.034;7.120;2024-02-16T03:00:51;3.08;;;1.10;;
48014;SDS011;33780;51.034;7.120;2024-02-16T03:03:16;2.90;;;1.02;;
48014;SDS011;33780;51.034;7.120;2024-02-16T03:05:42;2.60;;;1.20;;
48014;SDS011;33780;51.034;7.120;2024-02-16T03:08:08;4.55;;;1.10;;
48014;SDS011;33780;51.034;7.120;2024-02-16T03:10:33;3.80;;;1.10;;
48014;SDS011;33780;51.034;7.120;2024-02-16T03:13:00;4.05;;;1.13;;
48014;SDS011;33780;51.034;7.120;2024-02-16T03:15:26;2.35;;;1.10;;
48014;SDS011;33780;51.034;7.120;2024-02-16T03:17:51;4.90;;;1.15;;
48014;SDS011;33780;51.034;7.120;2024-02-16T03:20:17;2.95;;;1.00;;
48014;SDS011;33780;51.034;7.120;2024-02-16T03:22:42;3.45;;;1.10;;
48014;SDS011;33780;51.034;7.120;2024-02-16T03:25:07;3.38;;;1.10;;
48014;SDS011;33780;51.034;7.120;2024-02-16T03:27:33;4.03;;;1.40;;
48014;SDS011;33780;51.034;7.120;2024-02-16T03:29:59;2.60;;;1.05;;
48014;SDS011;33780;51.034;7.120;2024-02-16T03:32:24;3.60;;;1.13;;
48014;SDS011;33780;51.034;7.120;2024-02-16T03:34:50;2.33;;;1.17;;
48014;SDS011;33780;51.034;7.120;2024-02-16T03:37:15;3.17;;;1.30;;
48014;SDS011;33780;51.034;7.120;2024-02-16T03:39:41;3.92;;;1.23;;
48014;SDS011;33780;51.034;7.120;2024-02-16T03:42:06;3.25;;;1.20;;
48014;SDS011;33780;51.034;7.120;2024-02-16T03:44:32;2.38;;;1.08;;
48014;SDS011;33780;51.034;7.120;2024-02-16T03:46:57;3.30;;;1.20;;
48014;SDS011;33780;51.034;7.120;2024-02-16T03:49:22;3.63;;;1.20;;
48014;SDS011;33780;51.034;7.120;2024-02-16T03:51:48;3.50;;;1.30;;
48014;SDS011;33780;51.034;7.120;2024-02-16T03:54:13;3.38;;;1.20;;
48014;SDS011;33780;51.034;7.120;2024-02-16T03:56:39;4.60;;;1.27;;
48014;SDS011;33780;51.034;7.120;2024-02-16T03:59:04;2.35;;;1.20;;
48014;SDS011;33780;51.034;7.120;2024-02-16T04:01:30;2.08;;;1.10;;
48014;SDS011;33780;51.034;7.120;2024-02-16T04:03:56;3.13;;;1.10;;
48014;SDS011;33780;51.034;7.120;2024-02-16T04:06:21;3.25;;;1.27;;
48014;SDS011;33780;51.034;7.120;2024-02-16T04:08:46;3.25;;;1.20;;
48014;SDS011;33780;51.034;7.120;2024-02-16T04:11:13;3.45;;;1.20;;
48014;SDS011;33780;51.034;7.120;2024-02-16T04:13:40;2.40;;;1.20;;
48014;SDS011;33780;51.034;7.120;2024-02-16T04:16:06;3.78;;;1.25;;
48014;SDS011;33780;51.034;7.120;2024-02-16T04:18:31;3.20;;;1.20;;
48014;SDS011;33780;51.034;7.120;2024-02-16T04:20:56;2.33;;;1.17;;
48014;SDS011;33780;51.034;7.120;2024-02-16T04:23:22;4.25;;;1.40;;
48014;SDS011;33780;51.034;7.120;2024-02-16T04:25:47;4.22;;;1.25;;
48014;SDS011;33780;51.034;7.120;2024-02-16T04:28:12;3.05;;;1.30;;
48014;SDS011;33780;51.034;7.120;2024-02-16T04:30:38;4.13;;;1.35;;
48014;SDS011;33780;51.034;7.120;2024-02-16T04:33:04;3.70;;;1.25;;
48014;SDS011;33780;51.034;7.120;2024-02-16T04:35:29;3.20;;;1.10;;
48014;SDS011;33780;51.034;7.120;2024-02-16T04:37:55;3.17;;;0.95;;
48014;SDS011;33780;51.034;7.120;2024-02-16T04:40:20;2.63;;;1.20;;
48014;SDS011;33780;51.034;7.120;2024-02-16T04:42:45;3.03;;;1.33;;
48014;SDS011;33780;51.034;7.120;2024-02-16T04:45:11;5.22;;;1.48;;
48014;SDS011;33780;51.034;7.120;2024-02-16T04:47:38;2.30;;;1.30;;
48014;SDS011;33780;51.034;7.120;2024-02-16T04:50:03;5.35;;;1.48;;
48014;SDS011;33780;51.034;7.120;2024-02-16T04:52:29;7.70;;;1.75;;
48014;SDS011;33780;51.034;7.120;2024-02-16T04:54:55;7.22;;;1.67;;
48014;SDS011;33780;51.034;7.120;2024-02-16T04:57:20;4.57;;;1.50;;
48014;SDS011;33780;51.034;7.120;2024-02-16T04:59:45;4.80;;;1.50;;
48014;SDS011;33780;51.034;7.120;2024-02-16T05:02:11;3.15;;;1.38;;
48014;SDS011;33780;51.034;7.120;2024-02-16T05:04:36;3.88;;;1.30;;
48014;SDS011;33780;51.034;7.120;2024-02-16T05:07:01;3.75;;;1.40;;
48014;SDS011;33780;51.034;7.120;2024-02-16T05:09:27;2.58;;;1.20;;
48014;SDS011;33780;51.034;7.120;2024-02-16T05:11:52;2.85;;;1.30;;
48014;SDS011;33780;51.034;7.120;2024-02-16T05:14:17;2.55;;;1.30;;
48014;SDS011;33780;51.034;7.120;2024-02-16T05:16:46;6.18;;;1.40;;
48014;SDS011;33780;51.034;7.120;2024-02-16T05:19:12;3.00;;;1.50;;
48014;SDS011;33780;51.034;7.120;2024-02-16T05:21:38;2.50;;;1.20;;
48014;SDS011;33780;51.034;7.120;2024-02-16T05:24:03;2.15;;;1.00;;
48014;SDS011;33780;51.034;7.120;2024-02-16T05:26:29;5.13;;;1.40;;
48014;SDS011;33780;51.034;7.120;2024-02-16T05:28:54;2.97;;;1.23;;
48014;SDS011;33780;51.034;7.120;2024-02-16T05:31:20;4.35;;;1.95;;
48014;SDS011;33780;51.034;7.120;2024-02-16T05:33:47;4.97;;;1.40;;
48014;SDS011;33780;51.034;7.120;2024-02-16T05:36:17;3.55;;;1.30;;
48014;SDS011;33780;51.034;7.120;2024-02-16T05:38:45;4.88;;;1.48;;
48014;SDS011;33780;51.034;7.120;2024-02-16T05:41:13;2.85;;;1.20;;
48014;SDS011;33780;51.034;7.120;2024-02-16T05:43:42;3.38;;;1.40;;
48014;SDS011;33780;51.034;7.120;2024-02-16T05:46:12;3.72;;;1.40;;
48014;SDS011;33780;51.034;7.120;2024-02-16T05:48:40;2.85;;;1.13;;
48014;SDS011;33780;51.034;7.120;2024-02-16T05:51:06;3.22;;;1.15;;
48014;SDS011;33780;51.034;7.120;2024-02-16T05:53:32;4.22;;;1.42;;
48014;SDS011;33780;51.034;7.120;2024-02-16T05:55:58;4.57;;;1.40;;
48014;SDS011;33780;51.034;7.120;2024-02-16T05:58:23;3.28;;;1.40;;
48014;SDS011;33780;51.034;7.120;2024-02-16T06:00:49;3.72;;;1.30;;
48014;SDS011;33780;51.034;7.120;2024-02-16T06:03:14;3.63;;;1.45;;
48014;SDS011;33780;51.034;7.120;2024-02-16T06:05:40;3.80;;;1.40;;
48014;SDS011;33780;51.034;7.120;2024-02-16T06:08:06;2.45;;;1.25;;
48014;SDS011;33780;51.034;7.120;2024-02-16T06:10:32;6.97;;;1.77;;
48014;SDS011;33780;51.034;7.120;2024-02-16T06:12:58;3.03;;;1.60;;
48014;SDS011;33780;51.034;7.120;2024-02-16T06:15:23;3.00;;;1.25;;
48014;SDS011;33780;51.034;7.120;2024-02-16T06:17:49;4.07;;;1.83;;
48014;SDS011;33780;51.034;7.120;2024-02-16T06:20:15;3.13;;;1.65;;
48014;SDS011;33780;51.034;7.120;2024-02-16T06:22:41;4.72;;;1.70;;
48014;SDS011;33780;51.034;7.120;2024-02-16T06:25:07;4.63;;;1.40;;
48014;SDS011;33780;51.034;7.120;2024-02-16T06:27:32;6.90;;;1.48;;
48014;SDS011;33780;51.034;7.120;2024-02-16T06:29:58;3.45;;;1.45;;
48014;SDS011;33780;51.034;7.120;2024-02-16T06:32:23;2.83;;;1.38;;
48014;SDS011;33780;51.034;7.120;2024-02-16T06:34:48;4.88;;;1.30;;
48014;SDS011;33780;51.034;7.120;2024-02-16T06:37:14;2.75;;;1.40;;
48014;SDS011;33780;51.034;7.120;2024-02-16T06:39:40;4.35;;;1.60;;
48014;SDS011;33780;51.034;7.120;2024-02-16T06:42:05;2.47;;;1.33;;
48014;SDS011;33780;51.034;7.120;2024-02-16T06:44:31;2.70;;;1.27;;
48014;SDS011;33780;51.034;7.120;2024-02-16T06:46:56;3.10;;;1.35;;
48014;SDS011;33780;51.034;7.120;2024-02-16T06:49:21;3.17;;;1.30;;
48014;SDS011;33780;51.034;7.120;2024-02-16T06:51:47;4.32;;;1.52;;
48014;SDS011;33780;51.034;7.120;2024-02-16T06:54:12;4.40;;;1.58;;
48014;SDS011;33780;51.034;7.120;2024-02-16T06:56:37;3.55;;;1.50;;
48014;SDS011;33780;51.034;7.120;2024-02-16T06:59:03;3.97;;;1.50;;
48014;SDS011;33780;51.034;7.120;2024-02-16T07:01:28;2.95;;;1.50;;
48014;SDS011;33780;51.034;7.120;2024-02-16T07:03:53;3.40;;;1.30;;
48014;SDS011;33780;51.034;7.120;2024-02-16T07:06:19;3.38;;;1.92;;
48014;SDS011;33780;51.034;7.120;2024-02-16T07:08:44;5.53;;;1.67;;
48014;SDS011;33780;51.034;7.120;2024-02-16T07:11:10;4.32;;;1.50;;
48014;SDS011;33780;51.034;7.120;2024-02-16T07:13:39;4.25;;;1.42;;
48014;SDS011;33780;51.034;7.120;2024-02-16T07:16:05;2.70;;;1.30;;
48014;SDS011;33780;51.034;7.120;2024-02-16T07:18:34;3.80;;;1.50;;
48014;SDS011;33780;51.034;7.120;2024-02-16T07:21:00;4.25;;;2.05;;
48014;SDS011;33780;51.034;7.120;2024-02-16T07:23:26;3.65;;;1.50;;
48014;SDS011;33780;51.034;7.120;2024-02-16T07:25:51;4.18;;;1.40;;
48014;SDS011;33780;51.034;7.120;2024-02-16T07:28:20;4.50;;;1.60;;
48014;SDS011;33780;51.034;7.120;2024-02-16T07:30:45;4.43;;;1.70;;
48014;SDS011;33780;51.034;7.120;2024-02-16T07:33:10;7.00;;;1.80;;
48014;SDS011;33780;51.034;7.120;2024-02-16T07:35:36;2.75;;;1.63;;
48014;SDS011;33780;51.034;7.120;2024-02-16T07:38:03;3.60;;;1.70;;
48014;SDS011;33780;51.034;7.120;2024-02-16T07:40:28;4.20;;;1.80;;
48014;SDS011;33780;51.034;7.120;2024-02-16T07:42:54;4.75;;;1.60;;
48014;SDS011;33780;51.034;7.120;2024-02-16T07:45:19;4.05;;;1.88;;
48014;SDS011;33780;51.034;7.120;2024-02-16T07:47:45;4.45;;;2.00;;
48014;SDS011;33780;51.034;7.120;2024-02-16T07:50:11;5.68;;;2.20;;
48014;SDS011;33780;51.034;7.120;2024-02-16T07:52:37;3.55;;;1.58;;
48014;SDS011;33780;51.034;7.120;2024-02-16T07:55:03;3.88;;;1.92;;
48014;SDS011;33780;51.034;7.120;2024-02-16T07:57:29;4.32;;;1.73;;
48014;SDS011;33780;51.034;7.120;2024-02-16T07:59:55;2.72;;;1.67;;
48014;SDS011;33780;51.034;7.120;2024-02-16T08:02:21;3.92;;;1.63;;
48014;SDS011;33780;51.034;7.120;2024-02-16T08:04:47;4.68;;;1.73;;
48014;SDS011;33780;51.034;7.120;2024-02-16T08:07:13;3.38;;;1.38;;
48014;SDS011;33780;51.034;7.120;2024-02-16T08:09:38;3.70;;;1.80;;
48014;SDS011;33780;51.034;7.120;2024-02-16T08:12:04;3.72;;;1.75;;
48014;SDS011;33780;51.034;7.120;2024-02-16T08:14:31;2.95;;;1.60;;
48014;SDS011;33780;51.034;7.120;2024-02-16T08:17:00;3.95;;;1.63;;
48014;SDS011;33780;51.034;7.120;2024-02-16T08:19:31;5.43;;;1.50;;
48014;SDS011;33780;51.034;7.120;2024-02-16T08:21:59;4.72;;;1.48;;
48014;SDS011;33780;51.034;7.120;2024-02-16T08:24:24;4.63;;;1.63;;
48014;SDS011;33780;51.034;7.120;2024-02-16T08:26:50;3.67;;;1.67;;
48014;SDS011;33780;51.034;7.120;2024-02-16T08:29:16;4.15;;;1.70;;
48014;SDS011;33780;51.034;7.120;2024-02-16T08:31:41;2.70;;;1.40;;
48014;SDS011;33780;51.034;7.120;2024-02-16T08:34:06;2.78;;;1.60;;
48014;SDS011;33780;51.034;7.120;2024-02-16T08:36:32;3.47;;;1.92;;
48014;SDS011;33780;51.034;7.120;2024-02-16T08:38:59;2.97;;;1.88;;
48014;SDS011;33780;51.034;7.120;2024-02-16T08:41:24;3.63;;;1.80;;
48014;SDS011;33780;51.034;7.120;2024-02-16T08:43:49;3.35;;;1.63;;
48014;SDS011;33780;51.034;7.120;2024-02-16T08:46:15;4.55;;;1.50;;
48014;SDS011;33780;51.034;7.120;2024-02-16T08:48:41;2.65;;;1.48;;
48014;SDS011;33780;51.034;7.120;2024-02-16T08:51:06;3.58;;;1.65;;
48014;SDS011;33780;51.034;7.120;2024-02-16T08:53:31;5.68;;;1.63;;
48014;SDS011;33780;51.034;7.120;2024-02-16T08:55:57;6.28;;;1.80;;
48014;SDS011;33780;51.034;7.120;2024-02-16T08:58:22;5.03;;;1.80;;
48014;SDS011;33780;51.034;7.120;2024-02-16T09:00:47;3.88;;;1.58;;
48014;SDS011;33780;51.034;7.120;2024-02-16T09:03:14;4.60;;;1.40;;
48014;SDS011;33780;51.034;7.120;2024-02-16T09:05:41;3.85;;;1.50;;
48014;SDS011;33780;51.034;7.120;2024-02-16T09:08:08;4.15;;;1.65;;
48014;SDS011;33780;51.034;7.120;2024-02-16T09:10:34;3.80;;;1.40;;
48014;SDS011;33780;51.034;7.120;2024-02-16T09:13:00;3.53;;;1.27;;
48014;SDS011;33780;51.034;7.120;2024-02-16T09:15:25;3.03;;;1.55;;
48014;SDS011;33780;51.034;7.120;2024-02-16T09:17:50;4.95;;;1.70;;
48014;SDS011;33780;51.034;7.120;2024-02-16T09:20:16;3.28;;;1.38;;
48014;SDS011;33780;51.034;7.120;2024-02-16T09:22:47;3.42;;;1.33;;
48014;SDS011;33780;51.034;7.120;2024-02-16T09:25:13;3.10;;;1.60;;
48014;SDS011;33780;51.034;7.120;2024-02-16T09:27:39;4.30;;;1.50;;
48014;SDS011;33780;51.034;7.120;2024-02-16T09:30:06;4.22;;;1.67;;
48014;SDS011;33780;51.034;7.120;2024-02-16T09:32:31;4.78;;;1.92;;
48014;SDS011;33780;51.034;7.120;2024-02-16T09:34:57;3.85;;;1.60;;
48014;SDS011;33780;51.034;7.120;2024-02-16T09:37:22;3.25;;;1.58;;
48014;SDS011;33780;51.034;7.120;2024-02-16T09:39:48;4.05;;;1.70;;
48014;SDS011;33780;51.034;7.120;2024-02-16T09:42:13;2.58;;;1.50;;
48014;SDS011;33780;51.034;7.120;2024-02-16T09:44:39;4.28;;;1.52;;
48014;SDS011;33780;51.034;7.120;2024-02-16T09:47:06;3.80;;;1.55;;
48014;SDS011;33780;51.034;7.120;2024-02-16T09:49:35;3.28;;;1.52;;
48014;SDS011;33780;51.034;7.120;2024-02-16T09:52:02;2.35;;;1.38;;
48014;SDS011;33780;51.034;7.120;2024-02-16T09:54:30;4.68;;;1.80;;
48014;SDS011;33780;51.034;7.120;2024-02-16T09:56:59;4.35;;;1.50;;
48014;SDS011;33780;51.034;7.120;2024-02-16T09:59:24;2.80;;;1.60;;
48014;SDS011;33780;51.034;7.120;2024-02-16T10:01:58;3.25;;;1.50;;
48014;SDS011;33780;51.034;7.120;2024-02-16T10:04:24;7.05;;;2.30;;
48014;SDS011;33780;51.034;7.120;2024-02-16T10:06:50;4.50;;;1.83;;
48014;SDS011;33780;51.034;7.120;2024-02-16T10:09:25;3.42;;;1.60;;
48014;SDS011;33780;51.034;7.120;2024-02-16T10:11:54;6.00;;;1.92;;
48014;SDS011;33780;51.034;7.120;2024-02-16T10:14:19;4.03;;;1.98;;
48014;SDS011;33780;51.034;7.120;2024-02-16T10:16:45;4.30;;;2.00;;
48014;SDS011;33780;51.034;7.120;2024-02-16T10:19:23;3.40;;;1.67;;
48014;SDS011;33780;51.034;7.120;2024-02-16T10:21:49;3.28;;;1.60;;
48014;SDS011;33780;51.034;7.120;2024-02-16T10:24:14;3.50;;;1.75;;
48014;SDS011;33780;51.034;7.120;2024-02-16T10:26:39;3.28;;;1.60;;
48014;SDS011;33780;51.034;7.120;2024-02-16T10:29:05;3.58;;;1.55;;
48014;SDS011;33780;51.034;7.120;2024-02-16T10:31:33;5.47;;;2.10;;
48014;SDS011;33780;51.034;7.120;2024-02-16T10:34:02;4.80;;;1.80;;
48014;SDS011;33780;51.034;7.120;2024-02-16T10:36:31;4.35;;;1.73;;
48014;SDS011;33780;51.034;7.120;2024-02-16T10:39:00;3.35;;;1.80;;
48014;SDS011;33780;51.034;7.120;2024-02-16T10:41:42;3.97;;;1.73;;
48014;SDS011;33780;51.034;7.120;2024-02-16T10:44:10;3.47;;;1.77;;
48014;SDS011;33780;51.034;7.120;2024-02-16T10:46:36;5.03;;;1.77;;
48014;SDS011;33780;51.034;7.120;2024-02-16T10:49:02;3.50;;;1.80;;
48014;SDS011;33780;51.034;7.120;2024-02-16T10:51:51;4.35;;;1.70;;
48014;SDS011;33780;51.034;7.120;2024-02-16T10:54:22;3.75;;;1.90;;
48014;SDS011;33780;51.034;7.120;2024-02-16T10:56:53;3.67;;;1.70;;
48014;SDS011;33780;51.034;7.120;2024-02-16T10:59:18;5.28;;;2.35;;
48014;SDS011;33780;51.034;7.120;2024-02-16T11:01:44;3.17;;;1.75;;
48014;SDS011;33780;51.034;7.120;2024-02-16T11:04:19;5.20;;;2.13;;
48014;SDS011;33780;51.034;7.120;2024-02-16T11:06:52;3.88;;;1.77;;
48014;SDS011;33780;51.034;7.120;2024-02-16T11:09:28;4.15;;;2.03;;
48014;SDS011;33780;51.034;7.120;2024-02-16T11:11:55;3.30;;;1.77;;
48014;SDS011;33780;51.034;7.120;2024-02-16T11:14:23;6.47;;;1.90;;
48014;SDS011;33780;51.034;7.120;2024-02-16T11:16:49;3.13;;;1.70;;
48014;SDS011;33780;51.034;7.120;2024-02-16T11:19:19;7.97;;;1.85;;
48014;SDS011;33780;51.034;7.120;2024-02-16T11:21:54;4.82;;;1.88;;
48014;SDS011;33780;51.034;7.120;2024-02-16T11:24:44;3.63;;;1.77;;
48014;SDS011;33780;51.034;7.120;2024-02-16T11:27:14;7.88;;;2.10;;
48014;SDS011;33780;51.034;7.120;2024-02-16T11:29:43;5.18;;;1.98;;
48014;SDS011;33780;51.034;7.120;2024-02-16T11:32:09;5.88;;;2.03;;
48014;SDS011;33780;51.034;7.120;2024-02-16T11:34:35;4.43;;;1.92;;
48014;SDS011;33780;51.034;7.120;2024-02-16T11:37:02;5.13;;;1.80;;
48014;SDS011;33780;51.034;7.120;2024-02-16T11:39:30;4.35;;;2.22;;
48014;SDS011;33780;51.034;7.120;2024-02-16T11:42:03;5.15;;;2.40;;
48014;SDS011;33780;51.034;7.120;2024-02-16T11:47:00;3.90;;;2.15;;
48014;SDS011;33780;51.034;7.120;2024-02-16T11:49:26;4.68;;;2.17;;
48014;SDS011;33780;51.034;7.120;2024-02-16T11:51:52;5.38;;;2.10;;
48014;SDS011;33780;51.034;7.120;2024-02-16T11:54:18;6.18;;;2.10;;
48014;SDS011;33780;51.034;7.120;2024-02-16T11:56:44;4.47;;;2.03;;
48014;SDS011;33780;51.034;7.120;2024-02-16T11:59:13;4.75;;;2.13;;
48014;SDS011;33780;51.034;7.120;2024-02-16T12:04:27;4.55;;;2.22;;
48014;SDS011;33780;51.034;7.120;2024-02-16T12:07:02;4.35;;;2.08;;
48014;SDS011;33780;51.034;7.120;2024-02-16T12:09:28;4.65;;;1.92;;
48014;SDS011;33780;51.034;7.120;2024-02-16T12:11:54;4.55;;;2.00;;
48014;SDS011;33780;51.034;7.120;2024-02-16T12:14:23;5.47;;;2.40;;
48014;SDS011;33780;51.034;7.120;2024-02-16T12:19:20;5.43;;;2.10;;
48014;SDS011;33780;51.034;7.120;2024-02-16T12:21:53;4.13;;;2.00;;
48014;SDS011;33780;51.034;7.120;2024-02-16T12:24:20;6.03;;;2.25;;
48014;SDS011;33780;51.034;7.120;2024-02-16T12:26:46;6.47;;;2.20;;
48014;SDS011;33780;51.034;7.120;2024-02-16T12:29:12;5.32;;;2.47;;
48014;SDS011;33780;51.034;7.120;2024-02-16T12:31:42;5.30;;;2.20;;
48014;SDS011;33780;51.034;7.120;2024-02-16T12:34:09;4.45;;;2.10;;
48014;SDS011;33780;51.034;7.120;2024-02-16T12:36:35;6.15;;;2.22;;
48014;SDS011;33780;51.034;7.120;2024-02-16T12:39:07;5.50;;;2.53;;
48014;SDS011;33780;51.034;7.120;2024-02-16T12:41:36;4.30;;;2.38;;
48014;SDS011;33780;51.034;7.120;2024-02-16T12:44:02;4.63;;;2.17;;
48014;SDS011;33780;51.034;7.120;2024-02-16T12:46:28;4.68;;;2.60;;
48014;SDS011;33780;51.034;7.120;2024-02-16T12:48:53;5.20;;;2.22;;
48014;SDS011;33780;51.034;7.120;2024-02-16T12:51:19;7.45;;;2.83;;
48014;SDS011;33780;51.034;7.120;2024-02-16T12:53:44;8.45;;;2.40;;
48014;SDS011;33780;51.034;7.120;2024-02-16T12:56:10;3.40;;;2.10;;
48014;SDS011;33780;51.034;7.120;2024-02-16T12:58:36;4.30;;;2.30;;
48014;SDS011;33780;51.034;7.120;2024-02-16T13:01:07;6.07;;;2.58;;
48014;SDS011;33780;51.034;7.120;2024-02-16T13:03:37;6.32;;;2.50;;
48014;SDS011;33780;51.034;7.120;2024-02-16T13:06:03;4.95;;;2.50;;
48014;SDS011;33780;51.034;7.120;2024-02-16T13:08:29;4.45;;;2.33;;
48014;SDS011;33780;51.034;7.120;2024-02-16T13:10:55;5.20;;;2.20;;
48014;SDS011;33780;51.034;7.120;2024-02-16T13:13:21;3.85;;;2.15;;
48014;SDS011;33780;51.034;7.120;2024-02-16T13:15:46;5.18;;;2.42;;
48014;SDS011;33780;51.034;7.120;2024-02-16T13:18:12;4.80;;;2.63;;
48014;SDS011;33780;51.034;7.120;2024-02-16T13:20:38;5.32;;;2.58;;
48014;SDS011;33780;51.034;7.120;2024-02-16T13:23:03;7.38;;;2.50;;
48014;SDS011;33780;51.034;7.120;2024-02-16T13:25:29;5.53;;;2.40;;
48014;SDS011;33780;51.034;7.120;2024-02-16T13:27:54;6.85;;;2.85;;
48014;SDS011;33780;51.034;7.120;2024-02-16T13:30:19;4.47;;;2.45;;
48014;SDS011;33780;51.034;7.120;2024-02-16T13:32:45;6.22;;;2.40;;
48014;SDS011;33780;51.034;7.120;2024-02-16T13:35:10;7.60;;;2.90;;
48014;SDS011;33780;51.034;7.120;2024-02-16T13:37:35;4.90;;;2.60;;
48014;SDS011;33780;51.034;7.120;2024-02-16T13:40:02;6.45;;;2.67;;
48014;SDS011;33780;51.034;7.120;2024-02-16T13:42:31;5.43;;;2.95;;
48014;SDS011;33780;51.034;7.120;2024-02-16T13:44:57;6.65;;;2.78;;
48014;SDS011;33780;51.034;7.120;2024-02-16T13:47:23;5.63;;;2.92;;
48014;SDS011;33780;51.034;7.120;2024-02-16T13:49:48;6.88;;;3.30;;
48014;SDS011;33780;51.034;7.120;2024-02-16T13:52:15;6.93;;;3.80;;
48014;SDS011;33780;51.034;7.120;2024-02-16T13:54:41;5.55;;;3.38;;
48014;SDS011;33780;51.034;7.120;2024-02-16T13:57:06;5.47;;;3.10;;
48014;SDS011;33780;51.034;7.120;2024-02-16T13:59:31;7.32;;;3.35;;
48014;SDS011;33780;51.034;7.120;2024-02-16T14:01:58;7.88;;;3.40;;
48014;SDS011;33780;51.034;7.120;2024-02-16T14:04:24;10.07;;;2.92;;
48014;SDS011;33780;51.034;7.120;2024-02-16T14:06:52;4.90;;;2.95;;
48014;SDS011;33780;51.034;7.120;2024-02-16T14:09:17;5.10;;;3.20;;
48014;SDS011;33780;51.034;7.120;2024-02-16T14:11:46;7.20;;;3.38;;
48014;SDS011;33780;51.034;7.120;2024-02-16T14:14:12;5.57;;;3.17;;
48014;SDS011;33780;51.034;7.120;2024-02-16T14:16:37;6.82;;;3.72;;
48014;SDS011;33780;51.034;7.120;2024-02-16T14:19:02;5.18;;;3.28;;
48014;SDS011;33780;51.034;7.120;2024-02-16T14:21:28;6.68;;;3.78;;
48014;SDS011;33780;51.034;7.120;2024-02-16T14:23:53;7.25;;;3.40;;
48014;SDS011;33780;51.034;7.120;2024-02-16T14:26:19;6.10;;;3.42;;
48014;SDS011;33780;51.034;7.120;2024-02-16T14:28:45;6.10;;;3.30;;
48014;SDS011;33780;51.034;7.120;2024-02-16T14:31:11;6.72;;;3.50;;
48014;SDS011;33780;51.034;7.120;2024-02-16T14:33:38;6.65;;;3.72;;
48014;SDS011;33780;51.034;7.120;2024-02-16T14:36:04;8.40;;;3.55;;
48014;SDS011;33780;51.034;7.120;2024-02-16T14:38:29;7.30;;;3.63;;
48014;SDS011;33780;51.034;7.120;2024-02-16T14:40:55;6.88;;;3.20;;
48014;SDS011;33780;51.034;7.120;2024-02-16T14:43:21;6.53;;;3.65;;
48014;SDS011;33780;51.034;7.120;2024-02-16T14:45:46;6.68;;;3.45;;
48014;SDS011;33780;51.034;7.120;2024-02-16T14:48:12;5.78;;;3.67;;
48014;SDS011;33780;51.034;7.120;2024-02-16T14:50:37;8.48;;;4.43;;